Terminal Aerodrome Forecast
Issued by NWS Tuscon, AZ

Home | Current Version | Previous Version | Text Only | Print | Product List | Glossary On
Versions: 1 2 3 4 5 6 7 8 9 10 11 12 13
000
FTUS45 KTWC 170520
TAFDUG
TAF
KDUG 170520Z 1706/1806 07009KT P6SM FEW250
     FM172000 24007KT P6SM SCT250
     FM180200 05005KT P6SM SCT250=

USA.gov is the U.S. government's official web portal to all federal, state and local government web resources and services.